createdAt,value
2019-02-15T00:01:24.144Z,106.27
2019-02-15T00:06:25.929Z,459.80
2019-02-15T00:11:27.648Z,201.50
2019-02-15T00:16:29.951Z,326.13
2019-02-15T00:21:31.731Z,154.67
2019-02-15T00:26:33.967Z,198.97
2019-02-15T00:31:35.765Z,258.13
2019-02-15T00:36:37.556Z,659.63
2019-02-15T00:41:39.372Z,659.20
2019-02-15T00:46:42.923Z,81.37
2019-02-15T00:51:53.113Z,59.50
2019-02-15T00:57:06.274Z,44.67
2019-02-15T01:02:11.446Z,32.60
2019-02-15T01:07:14.967Z,53.50
2019-02-15T01:12:18.824Z,58.53
2019-02-15T01:17:20.466Z,42.77
2019-02-15T01:22:23.286Z,26.47
2019-02-15T01:27:26.795Z,36.00
2019-02-15T01:32:30.385Z,36.23
2019-02-15T01:37:34.026Z,79.17
2019-02-15T01:42:44.029Z,37.70
2019-02-15T01:47:45.831Z,37.03
2019-02-15T01:52:47.740Z,29.20
2019-02-15T01:57:50.051Z,33.10
2019-02-15T02:02:52.155Z,30.70
2019-02-15T02:07:54.163Z,20.77
2019-02-15T02:12:57.194Z,26.57
2019-02-15T02:17:59.300Z,23.47
2019-02-15T02:23:01.924Z,26.50
2019-02-15T02:28:03.680Z,28.80
2019-02-15T02:33:06.199Z,25.93
2019-02-15T02:38:08.002Z,29.20
2019-02-15T02:43:10.625Z,29.73
2019-02-15T02:48:12.422Z,26.67
2019-02-15T02:53:14.564Z,29.10
2019-02-15T02:58:16.331Z,22.40
2019-02-15T03:03:18.543Z,27.73
2019-02-15T03:08:20.251Z,24.13
2019-02-15T03:13:22.050Z,30.37
2019-02-15T03:18:25.903Z,24.40
2019-02-15T03:23:27.581Z,30.50
2019-02-15T03:28:29.612Z,32.33
2019-02-15T03:33:32.127Z,25.40
2019-02-15T03:38:38.851Z,24.77
2019-02-15T03:43:40.629Z,34.30
2019-02-15T03:48:42.396Z,26.97
2019-02-15T03:53:44.198Z,27.27
2019-02-15T03:58:45.998Z,29.17
2019-02-15T04:03:48.118Z,26.13
2019-02-15T04:08:49.812Z,29.60
2019-02-15T04:13:51.605Z,31.70
2019-02-15T04:18:53.801Z,32.80
2019-02-15T04:23:55.585Z,28.87
2019-02-15T04:28:57.387Z,28.87
2019-02-15T04:33:59.600Z,28.83
2019-02-15T04:39:01.399Z,31.20
2019-02-15T04:44:03.204Z,32.47
2019-02-15T04:49:04.999Z,29.63
2019-02-15T04:54:07.148Z,31.13
2019-02-15T04:59:09.345Z,27.80
2019-02-15T05:04:11.141Z,27.53
2019-02-15T05:09:12.808Z,26.97
2019-02-15T05:14:14.612Z,26.83
2019-02-15T05:19:16.311Z,28.93
2019-02-15T05:24:18.018Z,32.63
2019-02-15T05:29:19.817Z,34.50
2019-02-15T05:34:21.930Z,30.50
2019-02-15T05:39:23.638Z,32.73
2019-02-15T05:44:25.948Z,33.47
2019-02-15T05:49:27.664Z,31.40
2019-02-15T05:54:29.448Z,27.93
2019-02-15T05:59:31.153Z,29.13
2019-02-15T06:04:33.152Z,30.87
2019-02-15T06:09:34.859Z,28.10
2019-02-15T06:14:38.273Z,31.83
2019-02-15T06:19:39.920Z,38.00
2019-02-15T06:24:41.659Z,36.30
2019-02-15T06:29:43.692Z,38.83
2019-02-15T06:39:54.801Z,35.47
2019-02-15T06:44:56.640Z,31.40
2019-02-15T06:49:58.823Z,30.97
2019-02-15T06:55:00.588Z,34.17
2019-02-15T07:00:20.501Z,33.87
2019-02-15T07:05:24.245Z,39.87
2019-02-15T07:10:26.444Z,34.40
2019-02-15T07:15:33.866Z,33.23
2019-02-15T07:20:32.109Z,37.57
2019-02-15T07:25:33.805Z,31.03
2019-02-15T07:30:35.596Z,30.87
2019-02-15T07:35:37.930Z,30.53
2019-02-15T07:40:40.176Z,38.37
2019-02-15T07:45:43.128Z,40.20
2019-02-15T07:50:44.976Z,26.00
2019-02-15T07:55:46.980Z,32.17
2019-02-15T08:00:48.793Z,30.63
2019-02-15T08:05:50.581Z,37.60
2019-02-15T08:10:52.238Z,31.03
2019-02-15T08:15:53.958Z,31.20
2019-02-15T08:20:55.596Z,29.57
2019-02-15T08:25:57.810Z,24.97
2019-02-15T08:30:59.512Z,25.77
2019-02-15T08:36:01.207Z,22.97
2019-02-15T08:41:03.358Z,33.30
2019-02-15T08:46:05.126Z,26.00
2019-02-15T08:51:06.828Z,22.87
2019-02-15T08:56:08.836Z,23.80
2019-02-15T09:01:10.997Z,21.63
2019-02-15T09:06:13.263Z,25.07
2019-02-15T09:11:15.257Z,15.67
2019-02-15T09:16:17.079Z,18.77
2019-02-15T09:21:20.303Z,27.93
2019-02-15T09:26:22.427Z,35.83
2019-02-15T09:31:24.556Z,32.50
2019-02-15T09:36:26.283Z,35.53
2019-02-15T09:41:28.052Z,29.97
2019-02-15T09:46:30.008Z,28.10
2019-02-15T09:51:32.105Z,31.40
2019-02-15T09:56:34.212Z,26.17
2019-02-15T10:01:35.992Z,31.90
2019-02-15T10:06:38.375Z,32.80
2019-02-15T10:11:40.030Z,23.27
2019-02-15T10:16:41.806Z,30.60
2019-02-15T10:21:44.324Z,25.17
2019-02-15T10:26:46.338Z,22.43
2019-02-15T10:31:48.137Z,19.83
2019-02-15T10:36:50.189Z,28.53
2019-02-15T10:41:51.949Z,21.73
2019-02-15T10:46:53.857Z,20.07
2019-02-15T10:51:56.172Z,23.07
2019-02-15T10:56:58.234Z,19.00
2019-02-15T11:02:00.494Z,16.83
2019-02-15T11:07:02.257Z,18.37
2019-02-15T11:12:04.615Z,13.77
2019-02-15T11:17:06.326Z,19.33
2019-02-15T11:22:08.027Z,25.10
2019-02-15T11:27:10.020Z,16.70
2019-02-15T11:32:15.915Z,16.03
2019-02-15T11:37:17.577Z,14.27
2019-02-15T11:42:19.315Z,22.03
2019-02-15T11:47:21.014Z,16.83
2019-02-15T11:52:22.814Z,16.53
2019-02-15T11:57:25.337Z,12.43
2019-02-15T12:02:27.717Z,19.23
2019-02-15T12:07:29.411Z,15.20
2019-02-15T12:12:31.068Z,17.07
2019-02-15T12:17:32.832Z,21.10
2019-02-15T12:22:34.534Z,11.13
2019-02-15T12:27:36.876Z,12.80
2019-02-15T12:32:38.593Z,17.40
2019-02-15T12:37:40.360Z,14.80
2019-02-15T12:42:42.117Z,16.97
2019-02-15T12:47:43.870Z,13.47
2019-02-15T12:52:45.617Z,15.00
2019-02-15T12:57:48.044Z,11.50
2019-02-15T13:02:49.865Z,11.00
2019-02-15T13:07:51.784Z,15.73
2019-02-15T13:12:53.804Z,15.30
2019-02-15T13:17:55.595Z,15.07
2019-02-15T13:22:57.244Z,16.73
2019-02-15T13:27:59.406Z,12.50
2019-02-15T13:33:01.011Z,14.80
2019-02-15T13:38:02.829Z,16.73
2019-02-15T13:43:05.016Z,16.40
2019-02-15T13:48:06.942Z,14.90
2019-02-15T13:53:09.030Z,11.33
2019-02-15T13:58:11.676Z,16.50
2019-02-15T14:03:13.476Z,15.27
2019-02-15T14:08:16.555Z,17.30
2019-02-15T14:13:18.308Z,12.33
2019-02-15T14:18:20.010Z,19.23
2019-02-15T14:23:21.754Z,20.63
2019-02-15T14:28:23.854Z,14.00
2019-02-15T14:33:26.010Z,15.93
2019-02-15T14:38:28.185Z,16.13
2019-02-15T14:43:30.083Z,16.97
2019-02-15T14:48:31.855Z,18.77
2019-02-15T14:53:33.713Z,22.77
2019-02-15T14:58:36.034Z,22.83
2019-02-15T15:03:37.820Z,24.43
2019-02-15T15:08:42.036Z,26.10
2019-02-15T15:13:46.076Z,23.27
2019-02-15T15:18:49.599Z,22.00
2019-02-15T15:23:51.591Z,28.13
2019-02-15T15:28:54.330Z,31.87
2019-02-15T15:33:56.520Z,20.63
2019-02-15T15:38:59.051Z,15.37
2019-02-15T15:44:01.046Z,13.83
2019-02-15T15:49:02.745Z,12.97
2019-02-15T15:54:04.460Z,10.67
2019-02-15T15:59:06.173Z,9.57
2019-02-15T16:04:07.937Z,8.53
2019-02-15T16:09:09.709Z,10.60
2019-02-15T16:14:11.919Z,8.40
2019-02-15T16:19:13.698Z,11.90
2019-02-15T16:24:15.587Z,10.87
2019-02-15T16:29:18.894Z,9.53
2019-02-15T16:34:20.529Z,7.23
2019-02-15T16:39:22.345Z,8.50
2019-02-15T16:44:24.133Z,7.47
2019-02-15T17:11:17.875Z,10.43
2019-02-15T17:16:19.969Z,10.27
2019-02-15T17:21:21.757Z,7.43
2019-02-15T17:37:58.519Z,7.77
2019-02-15T17:43:01.025Z,8.63
2019-02-15T17:49:01.966Z,9.23
2019-02-15T17:54:07.079Z,7.73
2019-02-15T17:59:11.262Z,10.27
2019-02-15T18:04:15.192Z,12.63
2019-02-15T18:09:34.987Z,8.60
2019-02-15T18:14:39.125Z,10.43
2019-02-15T18:19:47.059Z,10.27
2019-02-15T18:24:45.062Z,8.73
2019-02-15T18:29:47.268Z,11.33
2019-02-15T18:34:49.071Z,12.27
2019-02-15T18:39:50.931Z,10.90
2019-02-15T18:44:52.638Z,14.90
2019-02-15T18:49:54.373Z,15.40
2019-02-15T18:54:59.256Z,19.17
2019-02-15T19:00:01.266Z,14.43
2019-02-15T19:05:05.469Z,14.60
2019-02-15T19:10:12.850Z,12.20
2019-02-15T19:15:15.474Z,13.57
2019-02-15T19:20:17.274Z,16.20
2019-02-15T19:25:19.788Z,15.60
2019-02-15T19:30:28.144Z,15.93
2019-02-15T19:35:30.039Z,17.90
2019-02-15T19:40:31.773Z,13.13
2019-02-15T19:45:33.550Z,20.20
2019-02-15T19:50:35.766Z,15.40
2019-02-15T19:55:37.564Z,18.00
2019-02-15T20:00:39.382Z,25.03
2019-02-15T20:05:41.805Z,34.53
2019-02-15T20:10:43.705Z,22.43
2019-02-15T20:15:45.403Z,25.00
2019-02-15T20:20:47.673Z,18.10
2019-02-15T20:25:49.477Z,19.87
2019-02-15T20:30:51.159Z,15.90
2019-02-15T20:35:59.725Z,12.90
2019-02-15T20:41:03.039Z,11.80
2019-02-15T20:46:05.356Z,11.20
2019-02-15T20:51:07.686Z,11.33
2019-02-15T20:56:09.569Z,10.33
2019-02-15T21:01:11.891Z,11.40
2019-02-15T21:06:14.814Z,10.03
2019-02-15T21:11:16.696Z,14.80
2019-02-15T21:16:20.358Z,13.37
2019-02-15T21:21:22.550Z,11.60
2019-02-15T21:26:24.707Z,15.17
2019-02-15T21:31:26.565Z,11.80
2019-02-15T21:36:29.693Z,11.77
2019-02-15T21:41:31.468Z,12.80
2019-02-15T21:46:33.169Z,16.00
2019-02-15T21:51:35.267Z,14.33
2019-02-15T21:56:36.925Z,14.20
2019-02-15T22:01:38.595Z,11.53
2019-02-15T22:06:40.324Z,9.80
2019-02-15T22:11:42.019Z,12.93
2019-02-15T22:16:43.813Z,18.07
2019-02-15T22:21:45.690Z,15.67
2019-02-15T22:26:47.548Z,12.17
2019-02-15T22:31:49.374Z,15.53
2019-02-15T22:36:51.213Z,21.83
2019-02-15T22:41:52.924Z,20.23
2019-02-15T22:46:57.021Z,20.10
2019-02-15T22:52:00.002Z,16.20
2019-02-15T22:57:01.727Z,18.83
2019-02-15T23:02:03.728Z,18.03
2019-02-15T23:07:05.443Z,19.87
2019-02-15T23:12:07.078Z,17.47
2019-02-15T23:17:08.885Z,15.23
2019-02-15T23:22:10.602Z,19.23
2019-02-15T23:27:12.565Z,16.57
2019-02-15T23:32:14.666Z,17.13
2019-02-15T23:37:16.458Z,20.00
2019-02-15T23:42:18.682Z,24.30
2019-02-15T23:47:20.909Z,33.20
2019-02-15T23:52:23.020Z,33.90
2019-02-15T23:57:24.851Z,41.90
